Time;durP1;ratioP1;P1;durP2;ratioP2;P2;SDS_P1;SDS_P2;PMS_P1;PMS_P2;Temp;Humidity;BMP_temperature;BMP_pressure;BME280_temperature;BME280_humidity;BME280_pressure;Samples;Min_cycle;Max_cycle;Signal;HPM_P1;HPM_P2
2022/03/08 00:00:57;;;;;;;12.47;8.33;;;;;;;-1.35;100.00;101508.09;5050448;28;20698;-74
2022/03/08 00:03:22;;;;;;;10.40;7.97;;;;;;;-1.42;100.00;101509.94;5050208;28;20546;-74
2022/03/08 00:05:48;;;;;;;8.37;7.23;;;;;;;-1.45;100.00;101504.16;5050238;28;20513;-75
2022/03/08 00:08:13;;;;;;;13.73;9.37;;;;;;;-1.44;100.00;101495.94;5049606;28;20228;-74
2022/03/08 00:10:39;;;;;;;8.37;6.60;;;;;;;-1.39;100.00;101496.13;5050277;28;20353;-74
2022/03/08 00:13:04;;;;;;;8.13;7.33;;;;;;;-1.49;100.00;101503.75;5050123;28;20229;-74
2022/03/08 00:15:29;;;;;;;10.33;6.90;;;;;;;-1.61;100.00;101500.84;5050225;28;20171;-75
2022/03/08 00:17:56;;;;;;;8.33;7.53;;;;;;;-1.62;100.00;101485.81;5050008;28;20171;-74
2022/03/08 00:20:22;;;;;;;10.13;8.57;;;;;;;-1.57;100.00;101493.25;5050060;28;20203;-74
2022/03/08 00:22:48;;;;;;;11.37;8.90;;;;;;;-1.59;100.00;101489.94;5049917;28;20449;-74
2022/03/08 00:25:14;;;;;;;9.63;6.60;;;;;;;-1.52;100.00;101490.78;5049949;28;20453;-74
2022/03/08 00:27:45;;;;;;;14.63;6.63;;;;;;;-1.53;100.00;101481.91;5049795;28;20238;-74
2022/03/08 00:30:12;;;;;;;9.93;7.17;;;;;;;-1.45;100.00;101485.41;5049989;28;21105;-73
2022/03/08 00:32:38;;;;;;;9.47;7.93;;;;;;;-1.46;100.00;101481.06;5049855;28;20429;-73
2022/03/08 00:35:04;;;;;;;10.93;9.13;;;;;;;-1.38;100.00;101488.91;5049997;28;20479;-74
2022/03/08 00:37:30;;;;;;;7.97;7.17;;;;;;;-1.20;100.00;101489.09;5049808;28;20175;-74
2022/03/08 00:39:55;;;;;;;9.03;8.13;;;;;;;-1.22;100.00;101488.50;5050011;28;20437;-74
2022/03/08 00:42:20;;;;;;;11.90;8.37;;;;;;;-1.36;100.00;101476.94;5050122;28;20173;-73
2022/03/08 00:44:46;;;;;;;12.13;7.20;;;;;;;-1.47;100.00;101474.88;5049806;28;20615;-74
2022/03/08 00:47:12;;;;;;;8.73;7.03;;;;;;;-1.53;100.00;101467.69;5049579;28;20186;-74
2022/03/08 00:49:38;;;;;;;9.07;8.17;;;;;;;-1.64;100.00;101469.13;5032178;28;20302;-74
2022/03/08 00:52:04;;;;;;;7.57;6.47;;;;;;;-1.72;100.00;101465.84;5049637;28;20182;-73
2022/03/08 00:54:30;;;;;;;16.07;8.67;;;;;;;-1.73;100.00;101458.84;5049758;28;20406;-73
2022/03/08 00:56:55;;;;;;;12.03;8.47;;;;;;;-1.66;100.00;101468.50;5049415;28;20775;-74
2022/03/08 00:59:21;;;;;;;11.53;7.13;;;;;;;-1.57;100.00;101459.25;5052855;28;20630;-74
2022/03/08 01:01:46;;;;;;;11.03;8.10;;;;;;;-1.54;100.00;101458.81;5053448;28;20545;-74
2022/03/08 01:04:12;;;;;;;8.60;7.47;;;;;;;-1.49;100.00;101468.91;5035431;28;20666;-74
2022/03/08 01:06:39;;;;;;;9.90;8.13;;;;;;;-1.39;100.00;101458.63;5052735;28;20171;-74
2022/03/08 01:09:05;;;;;;;14.57;8.33;;;;;;;-1.27;100.00;101466.84;5053295;28;20172;-74
2022/03/08 01:11:31;;;;;;;10.93;8.73;;;;;;;-1.24;100.00;101463.75;5053568;28;20421;-74
2022/03/08 01:13:57;;;;;;;8.27;6.83;;;;;;;-1.34;100.00;101456.13;5053199;28;20163;-74
2022/03/08 01:16:22;;;;;;;9.00;7.17;;;;;;;-1.41;100.00;101449.97;5053066;28;20183;-74
2022/03/08 01:18:48;;;;;;;12.67;8.20;;;;;;;-1.45;100.00;101451.38;5052839;28;20253;-74
2022/03/08 01:21:14;;;;;;;7.07;6.33;;;;;;;-1.55;100.00;101451.81;5053126;28;20588;-74
2022/03/08 01:23:40;;;;;;;20.43;7.93;;;;;;;-1.68;100.00;101446.47;5052955;28;20250;-75
2022/03/08 01:26:06;;;;;;;8.63;7.67;;;;;;;-1.78;100.00;101446.03;5053072;28;20756;-75
2022/03/08 01:28:31;;;;;;;7.83;7.13;;;;;;;-1.72;100.00;101441.72;5052436;28;20425;-74
2022/03/08 01:30:56;;;;;;;12.37;7.70;;;;;;;-1.73;100.00;101456.97;5052793;28;20201;-74
2022/03/08 01:33:22;;;;;;;6.90;5.97;;;;;;;-1.73;100.00;101450.78;5052746;28;20225;-75
2022/03/08 01:35:47;;;;;;;7.83;7.03;;;;;;;-1.73;100.00;101443.59;5034777;28;20266;-74
2022/03/08 01:38:12;;;;;;;7.83;6.63;;;;;;;-1.67;100.00;101452.66;5052519;28;20250;-74
2022/03/08 01:40:38;;;;;;;7.30;6.60;;;;;;;-1.66;100.00;101455.13;5052640;28;20241;-74
2022/03/08 01:43:03;;;;;;;8.43;7.40;;;;;;;-1.68;100.00;101445.63;5052792;28;20175;-75
2022/03/08 01:45:28;;;;;;;10.53;7.67;;;;;;;-1.71;100.00;101446.88;5053018;28;20262;-74
2022/03/08 01:47:54;;;;;;;11.37;6.47;;;;;;;-1.80;100.00;101438.22;5052294;28;20191;-74
2022/03/08 01:50:20;;;;;;;6.43;5.37;;;;;;;-1.94;100.00;101441.09;5052477;28;20175;-76
2022/03/08 01:52:46;;;;;;;8.80;7.27;;;;;;;-2.06;100.00;101438.19;5052342;28;20159;-74
2022/03/08 01:55:13;;;;;;;8.00;7.30;;;;;;;-2.02;100.00;101449.31;5052541;28;20832;-74
2022/03/08 01:57:38;;;;;;;8.37;6.47;;;;;;;-1.94;100.00;101438.41;5052151;28;20171;-74
2022/03/08 02:00:07;;;;;;;7.77;6.73;;;;;;;-1.87;100.00;101440.06;5052264;28;20422;-74
2022/03/08 02:02:32;;;;;;;10.17;7.20;;;;;;;-1.86;100.00;101439.03;5052263;28;20262;-75
2022/03/08 02:04:58;;;;;;;7.97;6.30;;;;;;;-1.89;100.00;101442.09;5052419;28;20509;-75
2022/03/08 02:07:24;;;;;;;7.97;7.03;;;;;;;-1.86;100.00;101440.91;5051973;28;20217;-74
2022/03/08 02:09:49;;;;;;;8.10;5.80;;;;;;;-1.81;100.00;101449.97;5051279;28;20171;-74
2022/03/08 02:12:14;;;;;;;8.43;6.80;;;;;;;-1.93;100.00;101442.72;5052479;28;20171;-73
2022/03/08 02:14:42;;;;;;;12.10;6.37;;;;;;;-1.97;100.00;101438.81;5052085;28;20247;-73
2022/03/08 02:17:07;;;;;;;6.67;5.87;;;;;;;-1.89;100.00;101444.78;5051774;28;20207;-74
2022/03/08 02:19:32;;;;;;;9.13;5.63;;;;;;;-1.99;100.00;101428.31;5053375;28;20483;-74
2022/03/08 02:21:58;;;;;;;8.77;4.73;;;;;;;-2.17;100.00;101431.59;5052040;28;20282;-73
2022/03/08 02:24:23;;;;;;;6.60;5.23;;;;;;;-2.21;100.00;101442.88;5052180;28;20565;-74
2022/03/08 02:26:51;;;;;;;5.90;5.30;;;;;;;-2.14;100.00;101435.72;5051790;28;20171;-74
2022/03/08 02:29:17;;;;;;;8.43;6.60;;;;;;;-2.14;100.00;101428.50;5051504;28;20658;-74
2022/03/08 02:31:42;;;;;;;7.63;5.10;;;;;;;-2.00;100.00;101428.53;5051706;28;20425;-74
2022/03/08 02:34:08;;;;;;;7.93;5.67;;;;;;;-2.00;100.00;101421.31;5051739;28;20182;-73
2022/03/08 02:36:33;;;;;;;5.57;4.90;;;;;;;-2.05;100.00;101422.94;5051512;28;20254;-74
2022/03/08 02:38:59;;;;;;;6.20;5.53;;;;;;;-2.02;100.00;101420.69;5051556;28;20619;-74
2022/03/08 02:41:24;;;;;;;8.40;6.93;;;;;;;-2.09;100.00;101425.22;5051408;28;20214;-74
2022/03/08 02:43:50;;;;;;;8.63;6.27;;;;;;;-2.01;100.00;101425.03;5051465;28;20224;-74
2022/03/08 02:46:16;;;;;;;9.40;5.60;;;;;;;-1.88;100.00;101434.91;5051392;28;20205;-74
2022/03/08 02:48:41;;;;;;;6.43;5.83;;;;;;;-2.02;100.00;101420.69;5051375;28;20176;-73
2022/03/08 02:51:06;;;;;;;6.87;5.73;;;;;;;-2.19;100.00;101424.75;5051542;28;20595;-74
2022/03/08 02:53:32;;;;;;;7.50;6.70;;;;;;;-2.20;100.00;101415.09;5051316;28;20183;-75
2022/03/08 02:55:58;;;;;;;6.20;5.33;;;;;;;-2.24;100.00;101414.69;5051715;28;20175;-73
2022/03/08 02:58:24;;;;;;;5.33;4.47;;;;;;;-2.31;100.00;101418.38;5050870;28;20172;-73
2022/03/08 03:00:49;;;;;;;6.97;6.13;;;;;;;-2.28;100.00;101424.16;5051000;28;20460;-74
2022/03/08 03:03:14;;;;;;;6.20;5.60;;;;;;;-2.30;100.00;101414.69;5051254;28;20242;-74
2022/03/08 03:05:40;;;;;;;5.53;5.03;;;;;;;-2.42;100.00;101417.13;5051046;28;20667;-73
2022/03/08 03:08:08;;;;;;;6.37;5.67;;;;;;;-2.37;100.00;101416.50;5050723;28;20171;-74
2022/03/08 03:10:33;;;;;;;5.80;5.07;;;;;;;-2.34;100.00;101414.22;5051009;28;20177;-74
2022/03/08 03:12:59;;;;;;;5.57;4.97;;;;;;;-2.26;100.00;101415.91;5032965;28;20794;-74
2022/03/08 03:15:27;;;;;;;7.07;4.90;;;;;;;-2.09;100.00;101419.84;5050822;28;20179;-73
2022/03/08 03:17:53;;;;;;;7.20;5.77;;;;;;;-2.20;100.00;101420.44;5050806;28;20175;-74
2022/03/08 03:20:21;;;;;;;6.03;5.43;;;;;;;-2.31;100.00;101415.72;5050489;28;20460;-74
2022/03/08 03:22:47;;;;;;;8.03;6.20;;;;;;;-2.38;100.00;101421.03;5050817;28;20413;-74
2022/03/08 03:25:15;;;;;;;6.53;5.70;;;;;;;-2.33;100.00;101423.91;5050786;28;20468;-73
2022/03/08 03:27:40;;;;;;;8.33;6.07;;;;;;;-2.07;100.00;101433.84;5050302;28;21033;-74
2022/03/08 03:30:09;;;;;;;6.23;5.63;;;;;;;-1.97;100.00;101428.09;5050654;28;20467;-74
2022/03/08 03:32:35;;;;;;;6.00;5.40;;;;;;;-1.89;100.00;101434.06;5050625;28;20209;-74
2022/03/08 03:35:00;;;;;;;6.80;6.10;;;;;;;-1.87;100.00;101431.22;5050570;28;20451;-73
2022/03/08 03:37:26;;;;;;;6.53;5.80;;;;;;;-1.84;100.00;101430.81;5050714;28;20931;-74
2022/03/08 03:39:52;;;;;;;7.20;6.30;;;;;;;-1.81;100.00;101428.53;5050599;28;20258;-73
2022/03/08 03:42:18;;;;;;;7.17;6.30;;;;;;;-1.78;100.00;101426.47;5050293;28;20767;-74
2022/03/08 03:44:43;;;;;;;7.87;6.47;;;;;;;-1.81;100.00;101423.19;5050549;28;20171;-73
2022/03/08 03:47:08;;;;;;;7.83;7.10;;;;;;;-1.75;100.00;101420.69;5050431;28;20211;-74
2022/03/08 03:49:34;;;;;;;6.63;6.07;;;;;;;-1.59;100.00;101421.13;5050342;28;20544;-74
2022/03/08 03:51:59;;;;;;;7.30;6.30;;;;;;;-1.63;100.00;101425.22;5050381;28;20175;-74
2022/03/08 03:54:24;;;;;;;7.90;7.10;;;;;;;-1.64;100.00;101423.59;5050292;28;20168;-74
2022/03/08 03:56:50;;;;;;;10.17;6.87;;;;;;;-1.59;100.00;101428.31;5050086;28;20635;-74
2022/03/08 03:59:16;;;;;;;6.90;6.20;;;;;;;-1.92;99.19;101418.41;5050428;28;20538;-74
2022/03/08 04:01:41;;;;;;;9.17;7.23;;;;;;;-1.74;99.04;101425.00;5050162;28;20214;-74
2022/03/08 04:04:07;;;;;;;8.00;6.13;;;;;;;-1.65;98.05;101419.25;5050236;28;20171;-74
2022/03/08 04:06:35;;;;;;;7.27;6.00;;;;;;;-1.69;97.76;101422.56;5050462;28;20175;-74
2022/03/08 04:09:03;;;;;;;7.30;6.27;;;;;;;-1.63;96.58;101419.88;5050533;28;20387;-74
2022/03/08 04:11:28;;;;;;;7.43;6.23;;;;;;;-1.63;95.82;101430.59;5050064;28;20501;-74
2022/03/08 04:13:53;;;;;;;9.07;6.20;;;;;;;-1.69;95.23;101423.38;5050305;28;20506;-74
2022/03/08 04:16:19;;;;;;;7.13;6.13;;;;;;;-2.01;94.74;101414.31;5050080;28;20182;-74
2022/03/08 04:18:44;;;;;;;9.10;6.40;;;;;;;-2.04;95.38;101417.38;5049855;28;20313;-74
2022/03/08 04:21:09;;;;;;;13.23;7.20;;;;;;;-1.86;95.60;101417.63;5050013;28;20198;-74
2022/03/08 04:23:35;;;;;;;6.40;5.73;;;;;;;-2.05;95.41;101412.22;5050037;28;20225;-74
2022/03/08 04:26:00;;;;;;;10.77;7.13;;;;;;;-2.38;96.18;101401.47;5049991;28;20179;-74
2022/03/08 04:28:26;;;;;;;7.03;6.30;;;;;;;-2.27;96.94;101416.94;5049924;28;20187;-74
2022/03/08 04:30:51;;;;;;;7.73;6.33;;;;;;;-2.06;97.58;101423.97;5049963;28;20193;-74
2022/03/08 04:33:16;;;;;;;6.30;5.67;;;;;;;-2.23;97.32;101416.31;5051703;28;20555;-74
2022/03/08 04:35:42;;;;;;;13.93;6.47;;;;;;;-2.41;98.23;101418.75;5053995;28;20171;-74
2022/03/08 04:38:08;;;;;;;6.77;5.63;;;;;;;-2.16;98.19;101427.88;5053710;28;20175;-74
2022/03/08 04:40:34;;;;;;;6.80;6.10;;;;;;;-2.05;97.22;101418.41;5035663;28;20624;-76
2022/03/08 04:42:59;;;;;;;6.57;5.43;;;;;;;-2.02;97.01;101418.03;5053845;28;20418;-74
2022/03/08 04:45:24;;;;;;;8.50;6.27;;;;;;;-2.00;96.57;101417.81;5053730;28;20709;-74
2022/03/08 04:47:50;;;;;;;7.77;7.07;;;;;;;-1.99;96.00;101422.13;5053451;28;20182;-74
2022/03/08 04:50:16;;;;;;;8.00;7.20;;;;;;;-2.04;95.74;101441.47;5053647;28;20572;-74
2022/03/08 04:52:44;;;;;;;7.37;6.67;;;;;;;-2.08;94.94;101432.19;5053732;28;20269;-74
2022/03/08 04:55:10;;;;;;;10.93;7.07;;;;;;;-2.14;95.40;101433.84;5054028;28;20449;-74
2022/03/08 04:57:35;;;;;;;7.70;7.00;;;;;;;-2.07;95.38;101430.34;5053215;28;20421;-73
2022/03/08 05:00:01;;;;;;;6.63;5.93;;;;;;;-2.13;95.29;101435.50;5053424;28;20536;-74
2022/03/08 05:02:27;;;;;;;8.73;5.73;;;;;;;-2.33;94.92;101434.63;5053206;28;20187;-74
2022/03/08 05:04:52;;;;;;;6.83;6.23;;;;;;;-2.41;94.48;101427.63;5053680;28;20172;-76
2022/03/08 05:07:17;;;;;;;9.27;6.80;;;;;;;-2.44;95.36;101419.16;5053138;28;20171;-74
2022/03/08 05:09:42;;;;;;;7.27;6.37;;;;;;;-2.44;95.68;101422.66;5053227;28;20215;-73
2022/03/08 05:12:08;;;;;;;6.70;6.00;;;;;;;-2.52;95.49;101428.19;5053230;28;20179;-74
2022/03/08 05:14:35;;;;;;;6.50;5.90;;;;;;;-2.55;96.49;101427.78;5053154;28;20254;-73
2022/03/08 05:17:00;;;;;;;7.33;6.53;;;;;;;-2.53;96.78;101423.88;5035069;28;20395;-74
2022/03/08 05:19:25;;;;;;;5.93;5.43;;;;;;;-2.59;97.36;101419.34;5053400;28;20429;-74
2022/03/08 05:21:51;;;;;;;7.47;6.30;;;;;;;-2.67;97.33;101424.84;5052981;28;20214;-73
2022/03/08 05:24:16;;;;;;;5.87;5.30;;;;;;;-2.72;97.71;101427.31;5052997;28;20228;-74
2022/03/08 05:26:42;;;;;;;6.23;4.97;;;;;;;-2.79;97.79;101429.09;5034899;28;20171;-73
2022/03/08 05:29:08;;;;;;;6.67;5.93;;;;;;;-2.90;97.66;101430.50;5052838;28;20187;-73
2022/03/08 05:31:34;;;;;;;14.53;6.27;;;;;;;-2.95;98.15;101427.59;5052715;28;20182;-73
2022/03/08 05:33:59;;;;;;;8.00;6.37;;;;;;;-2.90;99.04;101433.16;5052893;28;20425;-74
2022/03/08 05:36:25;;;;;;;9.20;6.97;;;;;;;-2.88;99.17;101427.66;5052859;28;20651;-74
2022/03/08 05:38:51;;;;;;;7.90;7.17;;;;;;;-2.76;100.00;101440.22;5052609;28;20642;-75
2022/03/08 05:41:16;;;;;;;7.97;6.77;;;;;;;-2.68;100.00;101441.09;5052600;28;20210;-74
2022/03/08 05:43:41;;;;;;;9.37;6.80;;;;;;;-2.75;100.00;101449.06;5052082;28;20262;-75
2022/03/08 05:46:07;;;;;;;8.43;6.50;;;;;;;-2.85;100.00;101433.41;5051815;28;20211;-75
2022/03/08 05:48:32;;;;;;;6.87;6.20;;;;;;;-2.87;100.00;101440.81;5052386;28;20210;-75
2022/03/08 05:50:57;;;;;;;7.07;6.17;;;;;;;-2.80;100.00;101448.84;5052554;28;20240;-74
2022/03/08 05:53:23;;;;;;;7.83;7.03;;;;;;;-2.81;100.00;101439.19;5052505;28;20699;-77
2022/03/08 05:55:48;;;;;;;5.90;5.30;;;;;;;-2.81;100.00;101447.22;5052340;28;20183;-73
2022/03/08 05:58:13;;;;;;;8.67;6.37;;;;;;;-2.81;100.00;101448.03;5052243;28;20197;-75
2022/03/08 06:00:39;;;;;;;7.47;6.50;;;;;;;-2.88;100.00;101446.38;5052591;28;20203;-74
2022/03/08 06:03:04;;;;;;;9.47;7.63;;;;;;;-2.91;100.00;101450.22;5052435;28;20642;-74
2022/03/08 06:05:30;;;;;;;8.50;6.57;;;;;;;-2.92;100.00;101443.22;5052262;28;20182;-74
2022/03/08 06:07:55;;;;;;;7.47;6.77;;;;;;;-2.98;100.00;101448.56;5051993;28;20321;-74
2022/03/08 06:10:20;;;;;;;10.50;6.60;;;;;;;-2.82;100.00;101464.28;5052080;28;20266;-74
2022/03/08 06:12:46;;;;;;;8.83;7.77;;;;;;;-2.71;100.00;101458.38;5052009;28;20182;-74
2022/03/08 06:15:11;;;;;;;11.07;8.37;;;;;;;-2.80;100.00;101462.22;5052017;28;20175;-77
2022/03/08 06:17:37;;;;;;;10.93;7.53;;;;;;;-2.67;100.00;101464.97;5051925;28;20236;-74
2022/03/08 06:20:03;;;;;;;12.27;8.37;;;;;;;-2.53;100.00;101474.69;5052108;28;20549;-74
2022/03/08 06:22:28;;;;;;;13.97;9.40;;;;;;;-2.39;100.00;101470.22;5052305;28;20182;-73
2022/03/08 06:24:54;;;;;;;9.50;8.60;;;;;;;-2.54;100.00;101467.69;5051831;28;20185;-75
2022/03/08 06:27:19;;;;;;;11.73;9.33;;;;;;;-2.59;100.00;101466.66;5051874;28;20180;-76
2022/03/08 06:29:45;;;;;;;16.33;10.80;;;;;;;-2.34;100.00;101466.94;5051767;28;20241;-74
2022/03/08 06:32:11;;;;;;;11.77;10.20;;;;;;;-2.28;100.00;101472.31;5051650;28;20211;-74
2022/03/08 06:34:36;;;;;;;7.30;6.60;;;;;;;-2.26;100.00;101464.09;5051559;28;20896;-75
2022/03/08 06:37:02;;;;;;;8.43;7.63;;;;;;;-2.20;100.00;101463.25;5051485;28;20527;-76
2022/03/08 06:39:27;;;;;;;8.47;7.40;;;;;;;-2.16;100.00;101472.56;5051511;28;20262;-75
2022/03/08 06:41:52;;;;;;;7.90;6.83;;;;;;;-2.08;100.00;101467.00;5051429;28;20207;-74
2022/03/08 06:44:18;;;;;;;9.77;8.50;;;;;;;-1.98;100.00;101474.66;5051578;28;20187;-74
2022/03/08 06:46:46;;;;;;;10.90;7.40;;;;;;;-1.93;100.00;101470.34;5051396;28;20193;-73
2022/03/08 06:49:11;;;;;;;7.93;7.17;;;;;;;-2.00;99.62;101468.69;5051312;28;20183;-76
2022/03/08 06:51:37;;;;;;;8.80;7.83;;;;;;;-2.02;99.34;101463.53;5051411;28;20791;-74
2022/03/08 06:54:04;;;;;;;7.90;7.20;;;;;;;-1.91;99.59;101457.56;5051217;28;20179;-76
2022/03/08 06:56:29;;;;;;;9.83;7.70;;;;;;;-1.88;99.06;101457.16;5050734;28;20226;-77
2022/03/08 06:58:54;;;;;;;12.53;8.57;;;;;;;-1.86;99.08;101449.75;5051046;28;20421;-75
2022/03/08 07:01:20;;;;;;;8.93;7.73;;;;;;;-1.85;99.43;101443.38;5050999;28;20229;-74
2022/03/08 07:03:45;;;;;;;13.97;8.27;;;;;;;-1.82;99.54;101439.44;5051189;28;20270;-73
2022/03/08 07:06:11;;;;;;;8.53;7.37;;;;;;;-1.77;99.31;101445.00;5051003;28;20572;-75
2022/03/08 07:08:39;;;;;;;13.83;8.03;;;;;;;-1.71;99.79;101452.25;5050797;28;20175;-74
2022/03/08 07:11:05;;;;;;;9.93;7.87;;;;;;;-1.61;100.00;101449.13;5050999;28;20183;-75
2022/03/08 07:13:34;;;;;;;14.30;9.10;;;;;;;-1.52;100.00;101450.59;5050973;28;20472;-73
2022/03/08 07:15:59;;;;;;;13.97;8.90;;;;;;;-1.50;100.00;101460.06;5051229;28;20267;-74
2022/03/08 07:18:25;;;;;;;8.90;8.00;;;;;;;-1.44;100.00;101466.47;5051031;28;20497;-75
2022/03/08 07:20:50;;;;;;;19.50;9.57;;;;;;;-1.36;100.00;101458.19;5050886;28;20441;-74
2022/03/08 07:23:16;;;;;;;9.90;8.80;;;;;;;-1.25;100.00;101468.28;5050579;28;20241;-74
2022/03/08 07:25:42;;;;;;;10.97;8.70;;;;;;;-1.19;100.00;101461.25;5050744;28;20583;-74
2022/03/08 07:28:07;;;;;;;12.27;9.37;;;;;;;-1.10;100.00;101460.03;5050284;28;20187;-73
2022/03/08 07:30:33;;;;;;;10.37;8.50;;;;;;;-1.08;100.00;101467.84;5050583;28;20285;-79
2022/03/08 07:32:58;;;;;;;9.57;8.63;;;;;;;-1.10;100.00;101464.56;5050625;28;20171;-74
2022/03/08 07:35:24;;;;;;;9.23;8.40;;;;;;;-1.12;100.00;101462.09;5050558;28;20217;-74
2022/03/08 07:37:50;;;;;;;13.73;9.77;;;;;;;-1.05;100.00;101468.25;5050270;28;20526;-75
2022/03/08 07:40:15;;;;;;;10.53;9.47;;;;;;;-1.00;100.00;101476.50;5050355;28;20184;-75
2022/03/08 07:42:41;;;;;;;13.60;9.77;;;;;;;-0.96;100.00;101477.72;5050421;28;20249;-74
2022/03/08 07:45:06;;;;;;;10.10;8.97;;;;;;;-0.88;100.00;101481.19;5050505;28;20571;-75
2022/03/08 07:47:32;;;;;;;12.03;9.13;;;;;;;-0.83;100.00;101484.94;5050103;28;20186;-74
2022/03/08 07:49:57;;;;;;;10.23;9.23;;;;;;;-0.78;100.00;101469.00;5050470;28;20175;-74
2022/03/08 07:52:22;;;;;;;12.30;9.87;;;;;;;-0.71;100.00;101474.38;5050215;28;20273;-74
2022/03/08 07:54:48;;;;;;;13.53;9.53;;;;;;;-0.64;100.00;101470.63;5050320;28;20175;-74
2022/03/08 07:57:13;;;;;;;12.10;10.13;;;;;;;-0.58;100.00;101485.03;5050298;28;20203;-73
2022/03/08 07:59:39;;;;;;;11.10;9.90;;;;;;;-0.38;100.00;101484.97;5050627;28;20661;-74
2022/03/08 08:02:04;;;;;;;17.43;12.40;;;;;;;-0.18;100.00;101479.50;5050212;28;20306;-74
2022/03/08 08:04:29;;;;;;;11.73;10.53;;;;;;;-0.05;99.78;101496.38;5050267;28;20208;-75
2022/03/08 08:06:55;;;;;;;10.10;8.33;;;;;;;0.30;98.04;101487.91;5049366;28;20182;-74
2022/03/08 08:09:20;;;;;;;9.53;8.17;;;;;;;0.51;96.45;101486.69;5049851;28;20175;-74
2022/03/08 08:11:46;;;;;;;10.57;7.77;;;;;;;0.66;94.70;101491.75;5050202;28;20639;-75
2022/03/08 08:14:12;;;;;;;10.50;8.20;;;;;;;0.78;93.00;101500.75;5050182;28;20186;-74
2022/03/08 08:16:37;;;;;;;7.83;7.03;;;;;;;0.94;92.13;101500.16;5050044;28;20186;-74
2022/03/08 08:19:02;;;;;;;7.63;6.93;;;;;;;1.01;91.21;101502.78;5050413;28;20615;-75
2022/03/08 08:21:28;;;;;;;8.77;7.67;;;;;;;1.12;90.39;101497.50;5049876;28;20234;-74
2022/03/08 08:23:53;;;;;;;9.90;7.13;;;;;;;1.23;89.76;101493.25;5032171;28;20179;-74
2022/03/08 08:26:19;;;;;;;8.63;7.77;;;;;;;1.30;88.54;101493.16;5050147;28;20257;-74
2022/03/08 08:28:44;;;;;;;10.57;7.30;;;;;;;1.42;87.80;101491.38;5049649;28;20808;-74
2022/03/08 08:31:09;;;;;;;8.73;7.57;;;;;;;1.45;87.27;101493.66;5032272;28;20271;-75
2022/03/08 08:33:35;;;;;;;11.67;10.20;;;;;;;1.47;86.16;101489.69;5050312;28;20175;-74
2022/03/08 08:36:02;;;;;;;11.67;7.63;;;;;;;1.63;86.12;101493.63;5049008;28;20209;-74
2022/03/08 08:38:28;;;;;;;9.13;8.00;;;;;;;1.85;85.70;101493.13;5049633;28;20176;-75
2022/03/08 08:40:54;;;;;;;12.77;7.30;;;;;;;1.83;83.74;101489.84;5048720;28;20202;-75
2022/03/08 08:43:19;;;;;;;10.30;8.00;;;;;;;1.91;82.56;101484.97;5048669;28;20176;-74
2022/03/08 08:45:51;;;;;;;9.00;7.97;;;;;;;1.98;82.67;101490.25;5049942;28;20191;-76
2022/03/08 08:48:16;;;;;;;9.47;7.77;;;;;;;2.07;82.26;101489.72;5049593;28;20202;-74
2022/03/08 08:50:42;;;;;;;9.87;8.87;;;;;;;2.26;82.67;101490.47;5049703;28;20198;-75
2022/03/08 08:53:07;;;;;;;9.07;8.10;;;;;;;2.27;81.41;101475.94;5049818;28;20550;-75
2022/03/08 08:55:34;;;;;;;10.10;8.40;;;;;;;2.36;81.02;101482.66;5049715;28;20171;-74
2022/03/08 08:58:00;;;;;;;11.63;8.40;;;;;;;2.49;80.96;101472.72;5049562;28;20180;-78
2022/03/08 09:00:25;;;;;;;13.10;8.13;;;;;;;2.55;80.76;101466.38;5049675;28;20746;-74
2022/03/08 09:02:52;;;;;;;9.63;7.40;;;;;;;2.66;80.21;101465.56;5049754;28;20179;-75
2022/03/08 09:05:17;;;;;;;9.57;8.17;;;;;;;2.88;79.49;101461.22;5049597;28;20283;-74
2022/03/08 09:07:43;;;;;;;11.17;6.97;;;;;;;3.10;78.96;101456.06;5049433;28;20258;-76
2022/03/08 09:10:09;;;;;;;22.67;7.70;;;;;;;3.14;77.89;101456.38;5049653;28;20232;-75
2022/03/08 09:12:34;;;;;;;9.10;8.00;;;;;;;3.21;77.95;101452.53;5049536;28;20178;-74
2022/03/08 09:15:02;;;;;;;7.10;6.40;;;;;;;3.32;77.56;101453.53;5049632;28;20200;-74
2022/03/08 09:17:27;;;;;;;8.03;7.27;;;;;;;3.34;76.65;101450.63;5049381;28;20167;-75
2022/03/08 09:19:53;;;;;;;8.50;7.40;;;;;;;3.41;76.31;101445.88;5051927;28;20232;-74
2022/03/08 09:22:18;;;;;;;9.07;8.17;;;;;;;3.65;76.11;101450.16;5052912;28;20329;-80
2022/03/08 09:24:43;;;;;;;8.33;7.53;;;;;;;3.66;75.92;101448.28;5035333;28;20626;-75
2022/03/08 09:27:09;;;;;;;15.60;7.73;;;;;;;3.67;74.90;101441.81;5052919;28;20175;-75
2022/03/08 09:29:34;;;;;;;7.77;7.03;;;;;;;3.70;75.21;101436.75;5053300;28;20179;-77
2022/03/08 09:31:59;;;;;;;8.53;7.53;;;;;;;3.77;75.52;101433.91;5053112;28;20576;-74
2022/03/08 09:34:25;;;;;;;8.90;7.53;;;;;;;3.93;75.91;101437.72;5052865;28;20175;-75
2022/03/08 09:36:50;;;;;;;7.33;5.87;;;;;;;4.04;74.98;101429.53;5052908;28;20171;-74
2022/03/08 09:39:16;;;;;;;6.63;5.97;;;;;;;3.98;74.28;101430.50;5053071;28;20177;-74
2022/03/08 09:41:41;;;;;;;6.50;5.87;;;;;;;3.96;72.76;101429.94;5052724;28;20569;-74
2022/03/08 09:44:12;;;;;;;6.30;5.13;;;;;;;3.91;73.06;101432.56;5052726;28;20170;-74
2022/03/08 09:46:37;;;;;;;3.57;3.27;;;;;;;4.11;74.01;101437.50;5052624;28;20199;-74
2022/03/08 09:49:03;;;;;;;4.10;3.77;;;;;;;4.18;72.49;101427.31;5052510;28;20272;-74
2022/03/08 09:51:29;;;;;;;5.97;4.03;;;;;;;4.39;72.71;101426.63;5052574;28;20187;-73
2022/03/08 09:53:54;;;;;;;4.43;3.07;;;;;;;4.54;71.26;101426.03;5052551;28;20182;-74
2022/03/08 09:56:20;;;;;;;3.00;2.80;;;;;;;4.70;69.30;101419.78;5034616;28;20171;-74
2022/03/08 09:58:45;;;;;;;2.90;2.60;;;;;;;4.75;67.81;101419.03;5052173;28;20254;-74
2022/03/08 10:01:11;;;;;;;3.53;2.60;;;;;;;4.85;67.16;101421.06;5052299;28;20659;-73
2022/03/08 10:03:40;;;;;;;3.30;3.00;;;;;;;4.73;67.27;101411.16;5052379;28;20213;-73
2022/03/08 10:06:07;;;;;;;3.10;2.80;;;;;;;4.82;66.96;101413.47;5052319;28;20250;-73
2022/03/08 10:08:33;;;;;;;3.40;2.90;;;;;;;4.85;66.18;101412.94;5052025;28;20680;-73
2022/03/08 10:11:03;;;;;;;3.87;2.90;;;;;;;4.78;65.87;101413.16;5052146;28;20171;-73
2022/03/08 10:13:32;;;;;;;3.33;3.03;;;;;;;4.90;66.36;101411.13;5052293;28;20167;-75
2022/03/08 10:16:05;;;;;;;3.93;3.03;;;;;;;4.96;66.06;101420.16;5052097;28;20171;-73
2022/03/08 10:18:32;;;;;;;2.97;2.67;;;;;;;5.02;65.95;101411.84;5051906;28;20184;-73
2022/03/08 10:20:57;;;;;;;3.57;2.73;;;;;;;5.06;66.21;101413.00;5034079;28;20199;-73
2022/03/08 10:23:23;;;;;;;2.40;2.20;;;;;;;5.16;65.76;101414.19;5051860;28;20543;-73
2022/03/08 10:25:48;;;;;;;3.13;2.83;;;;;;;5.24;65.66;101411.88;5034066;28;20234;-73
2022/03/08 10:28:13;;;;;;;2.67;2.47;;;;;;;5.20;66.16;101409.88;5051581;28;20726;-73
2022/03/08 10:30:42;;;;;;;4.47;2.77;;;;;;;5.25;65.66;101402.66;5051461;28;20639;-73
2022/03/08 10:33:07;;;;;;;3.37;2.83;;;;;;;5.26;64.93;101411.59;5051731;28;20506;-73
2022/03/08 10:35:37;;;;;;;2.40;2.20;;;;;;;5.32;63.86;101407.88;5051789;28;20512;-73
2022/03/08 10:38:12;;;;;;;2.87;2.47;;;;;;;5.44;65.02;101407.75;5051563;28;20221;-74
2022/03/08 10:40:38;;;;;;;2.60;2.40;;;;;;;5.74;64.36;101408.09;5051548;28;20191;-73
2022/03/08 10:43:15;;;;;;;1.90;1.70;;;;;;;5.94;62.38;101411.06;5051441;28;20681;-73
2022/03/08 10:45:45;;;;;;;1.70;1.50;;;;;;;6.07;59.98;101408.97;5051483;28;20536;-73
2022/03/08 10:48:14;;;;;;;1.77;1.63;;;;;;;5.81;59.36;101397.88;5051300;28;20175;-73
2022/03/08 10:50:41;;;;;;;2.37;1.77;;;;;;;6.03;60.63;101402.44;5051440;28;20261;-73
2022/03/08 10:53:08;;;;;;;1.73;1.50;;;;;;;6.02;59.76;101398.91;5051417;28;20172;-74
2022/03/08 10:55:38;;;;;;;1.80;1.70;;;;;;;6.04;58.29;101387.78;5051240;28;20175;-73
2022/03/08 10:58:08;;;;;;;1.63;1.53;;;;;;;6.25;56.94;101384.19;5051178;28;20226;-73
2022/03/08 11:00:41;;;;;;;1.37;1.20;;;;;;;6.46;56.81;101380.53;5051208;28;20560;-74
2022/03/08 11:03:10;;;;;;;2.23;1.27;;;;;;;6.32;56.22;101371.19;5051202;28;20194;-73
2022/03/08 11:05:39;;;;;;;1.60;0.97;;;;;;;6.38;56.71;101362.03;5051491;28;20171;-73
2022/03/08 11:08:06;;;;;;;1.20;1.10;;;;;;;6.50;57.35;101364.53;5050857;28;20174;-73
2022/03/08 11:10:32;;;;;;;0.90;0.90;;;;;;;6.54;55.48;101363.78;5051030;28;20175;-73
2022/03/08 11:12:59;;;;;;;1.13;1.03;;;;;;;6.57;54.57;101355.09;5051162;28;20182;-74
2022/03/08 11:15:26;;;;;;;1.10;0.87;;;;;;;6.66;54.65;101352.72;5051121;28;20171;-74